Time;durP1;ratioP1;P1;durP2;ratioP2;P2;SDS_P1;SDS_P2;PMS_P1;PMS_P2;Temp;Humidity;BMP_temperature;BMP_pressure;BME280_temperature;BME280_humidity;BME280_pressure;Samples;Min_cycle;Max_cycle;Signal;HPM_P1;HPM_P2
2022/04/16 00:00:49;;;;;;;;;;;;;;;18.59;62.34;100214.00;2082793;28;19917;-55
2022/04/16 00:01:52;;;;;;;;;;;;;;;18.57;62.37;100205.97;2082588;28;20023;-56
2022/04/16 00:02:52;;;;;;;;;;;;;;;18.58;62.43;100212.28;2081852;28;19971;-56
2022/04/16 00:03:53;;;;;;;;;;;;;;;18.57;62.27;100216.91;2086171;28;19924;-56
2022/04/16 00:04:53;;;;;;;;;;;;;;;18.58;62.24;100207.69;2087618;28;19920;-55
2022/04/16 00:05:54;;;;;;;;;;;;;;;18.59;62.34;100214.00;2081826;28;19963;-56
2022/04/16 00:06:55;;;;;;;;;;;;;;;18.57;62.33;100210.53;2082236;28;19922;-56
2022/04/16 00:08:07;;;;;;;;;;;;;;;18.59;62.24;100214.00;2080483;28;19949;-56
2022/04/16 00:09:07;;;;;;;;;;;;;;;18.57;62.27;100205.09;2079655;28;19920;-55
2022/04/16 00:10:09;;;;;;;;;;;;;;;18.57;62.31;100210.53;2084063;28;20258;-55
2022/04/16 00:11:09;;;;;;;;;;;;;;;18.57;62.34;100218.72;2082322;28;19920;-56
2022/04/16 00:12:09;;;;;;;;;;;;;;;18.58;62.26;100215.03;2082974;28;20395;-55
2022/04/16 00:13:11;;;;;;;;;;;;;;;18.57;62.31;100211.44;2083470;28;20221;-55
2022/04/16 00:14:12;;;;;;;;;;;;;;;18.58;62.30;100213.16;2082178;28;20111;-56
2022/04/16 00:15:12;;;;;;;;;;;;;;;18.57;62.33;100213.28;2084727;28;20499;-56
2022/04/16 00:16:16;;;;;;;;;;;;;;;18.57;62.34;100208.69;2084101;28;19978;-55
2022/04/16 00:17:16;;;;;;;;;;;;;;;18.57;62.30;100213.28;2083990;28;19967;-55
2022/04/16 00:18:17;;;;;;;;;;;;;;;18.57;62.27;100211.44;2086187;28;19927;-55
2022/04/16 00:19:19;;;;;;;;;;;;;;;18.57;62.34;100205.09;2080007;28;19975;-56
2022/04/16 00:20:19;;;;;;;;;;;;;;;18.57;62.28;100205.97;2085886;28;19920;-55
2022/04/16 00:21:22;;;;;;;;;;;;;;;18.56;62.36;100208.84;2082463;28;19920;-56
2022/04/16 00:22:23;;;;;;;;;;;;;;;18.56;62.36;100203.38;2085481;28;19924;-56
2022/04/16 00:23:25;;;;;;;;;;;;;;;18.55;62.40;100202.53;2084708;28;20394;-56
2022/04/16 00:24:28;;;;;;;;;;;;;;;18.56;62.33;100209.69;2082626;28;20210;-55
2022/04/16 00:25:30;;;;;;;;;;;;;;;18.55;62.38;100201.66;2083523;28;19924;-54
2022/04/16 00:26:30;;;;;;;;;;;;;;;18.55;62.29;100207.13;2084442;28;19978;-54
2022/04/16 00:27:31;;;;;;;;;;;;;;;18.54;62.39;100194.47;2082437;28;20285;-55
2022/04/16 00:28:31;;;;;;;;;;;;;;;18.54;62.36;100206.25;2085642;28;19920;-55
2022/04/16 00:29:31;;;;;;;;;;;;;;;18.53;62.43;100201.78;2083738;28;19920;-55
2022/04/16 00:30:39;;;;;;;;;;;;;;;18.53;62.40;100206.41;2084198;28;19994;-56
2022/04/16 00:31:39;;;;;;;;;;;;;;;18.53;62.31;100203.66;2082964;28;19931;-56
2022/04/16 00:32:42;;;;;;;;;;;;;;;18.53;62.32;100199.06;2099670;27;19926;-56
2022/04/16 00:33:43;;;;;;;;;;;;;;;18.54;62.30;100202.66;2101971;28;19962;-56
2022/04/16 00:34:43;;;;;;;;;;;;;;;18.54;62.38;100200.78;2083985;28;19920;-55
2022/04/16 00:35:43;;;;;;;;;;;;;;;18.54;62.24;100194.47;2083842;28;19924;-55
2022/04/16 00:36:44;;;;;;;;;;;;;;;18.54;62.38;100195.31;2080834;28;19975;-56
2022/04/16 00:37:46;;;;;;;;;;;;;;;18.54;62.33;100194.47;2082984;28;20033;-55
2022/04/16 00:38:46;;;;;;;;;;;;;;;18.53;62.46;100196.34;2082719;28;19952;-56
2022/04/16 00:39:46;;;;;;;;;;;;;;;18.53;62.26;100193.59;2082278;28;19909;-56
2022/04/16 00:40:47;;;;;;;;;;;;;;;18.53;62.26;100198.22;2080090;28;20285;-56
2022/04/16 00:41:47;;;;;;;;;;;;;;;18.53;62.28;100198.22;2084850;28;20033;-55
2022/04/16 00:42:48;;;;;;;;;;;;;;;18.53;62.40;100195.47;2084922;28;20652;-56
2022/04/16 00:43:52;;;;;;;;;;;;;;;18.53;62.39;100196.34;2091058;28;20352;-55
2022/04/16 00:44:52;;;;;;;;;;;;;;;18.52;62.36;100196.47;2084926;28;20347;-55
2022/04/16 00:45:53;;;;;;;;;;;;;;;18.52;62.41;100196.47;2086727;28;19920;-56
2022/04/16 00:46:53;;;;;;;;;;;;;;;18.52;62.43;100193.75;2090966;28;20419;-56
2022/04/16 00:47:54;;;;;;;;;;;;;;;18.52;62.40;100191.00;2072792;28;20609;-56
2022/04/16 00:48:54;;;;;;;;;;;;;;;18.51;62.45;100194.75;2084358;28;20321;-56
2022/04/16 00:49:55;;;;;;;;;;;;;;;18.51;62.37;100194.75;2084084;28;19923;-55
2022/04/16 00:50:56;;;;;;;;;;;;;;;18.51;62.36;100189.31;2084338;28;19934;-57
2022/04/16 00:51:56;;;;;;;;;;;;;;;18.50;62.38;100187.59;2080828;28;19916;-55
2022/04/16 00:52:57;;;;;;;;;;;;;;;18.51;62.42;100189.31;2081858;28;20854;-56
2022/04/16 00:53:57;;;;;;;;;;;;;;;18.50;62.34;100182.97;2085500;28;19909;-56
2022/04/16 00:54:58;;;;;;;;;;;;;;;18.51;62.36;100186.56;2083607;28;19925;-56
2022/04/16 00:55:59;;;;;;;;;;;;;;;18.51;62.32;100190.16;2084509;28;19916;-55
2022/04/16 00:57:00;;;;;;;;;;;;;;;18.51;62.40;100184.69;2083073;28;20331;-55
2022/04/16 00:58:00;;;;;;;;;;;;;;;18.50;62.35;100185.72;2083514;28;19917;-56
2022/04/16 00:59:01;;;;;;;;;;;;;;;18.51;62.42;100189.31;2087070;28;20815;-56
2022/04/16 01:00:03;;;;;;;;;;;;;;;18.50;62.26;100182.97;2082501;28;19923;-56
2022/04/16 01:01:03;;;;;;;;;;;;;;;18.50;62.35;100185.72;2083932;28;19927;-56
2022/04/16 01:02:04;;;;;;;;;;;;;;;18.51;62.32;100183.84;2084479;28;19913;-55
2022/04/16 01:03:05;;;;;;;;;;;;;;;18.49;62.31;100175.78;2078845;28;20438;-55
2022/04/16 01:04:05;;;;;;;;;;;;;;;18.50;62.26;100182.97;2082151;28;19983;-56
2022/04/16 01:05:07;;;;;;;;;;;;;;;18.50;62.36;100190.31;2082054;28;20329;-55
2022/04/16 01:06:14;;;;;;;;;;;;;;;18.49;62.39;100186.69;2082203;28;20015;-55
2022/04/16 01:07:21;;;;;;;;;;;;;;;18.50;62.30;100182.13;2081158;28;19928;-56
2022/04/16 01:08:22;;;;;;;;;;;;;;;18.49;62.37;100180.38;2080335;28;19912;-55
2022/04/16 01:09:22;;;;;;;;;;;;;;;18.49;62.17;100185.84;2083023;28;19927;-57
2022/04/16 01:10:27;;;;;;;;;;;;;;;18.49;62.40;100180.38;2091704;28;19920;-54
2022/04/16 01:11:27;;;;;;;;;;;;;;;18.48;62.30;100184.13;2086758;28;19920;-56
2022/04/16 01:12:28;;;;;;;;;;;;;;;18.49;62.35;100191.31;2082986;28;19916;-57
2022/04/16 01:13:29;;;;;;;;;;;;;;;18.49;62.29;100185.84;2083697;28;19921;-54
2022/04/16 01:14:29;;;;;;;;;;;;;;;18.48;62.28;100181.41;2082968;28;19908;-55
2022/04/16 01:15:30;;;;;;;;;;;;;;;18.48;62.44;100184.13;2091526;28;19912;-56
2022/04/16 01:16:34;;;;;;;;;;;;;;;18.48;62.41;100184.13;2099646;28;21525;-55
2022/04/16 01:17:34;;;;;;;;;;;;;;;18.48;62.37;100175.94;2082616;28;19920;-54
2022/04/16 01:18:35;;;;;;;;;;;;;;;18.48;62.35;100185.00;2079964;28;20775;-56
2022/04/16 01:19:41;;;;;;;;;;;;;;;18.48;62.37;100173.22;2081886;28;19920;-55
2022/04/16 01:20:44;;;;;;;;;;;;;;;18.47;62.37;100183.28;2084380;28;20183;-55
2022/04/16 01:21:46;;;;;;;;;;;;;;;18.48;62.31;100175.94;2079797;28;19947;-56
2022/04/16 01:22:48;;;;;;;;;;;;;;;18.47;62.42;100182.38;2083915;28;19916;-56
2022/04/16 01:23:48;;;;;;;;;;;;;;;18.48;62.30;100178.69;2084326;28;19913;-55
2022/04/16 01:24:49;;;;;;;;;;;;;;;18.48;62.31;100178.69;2086542;28;20339;-56
2022/04/16 01:25:50;;;;;;;;;;;;;;;18.48;62.29;100173.22;2083405;28;20549;-55
2022/04/16 01:26:51;;;;;;;;;;;;;;;18.47;62.25;100174.19;2083638;28;19921;-55
2022/04/16 01:27:52;;;;;;;;;;;;;;;18.48;62.22;100173.22;2083364;28;20456;-55
2022/04/16 01:28:52;;;;;;;;;;;;;;;18.47;62.34;100174.19;2078719;28;19917;-55
2022/04/16 01:29:57;;;;;;;;;;;;;;;18.48;62.30;100173.22;2082396;28;20435;-55
2022/04/16 01:30:58;;;;;;;;;;;;;;;18.47;62.22;100169.63;2084156;28;19979;-55
2022/04/16 01:31:59;;;;;;;;;;;;;;;18.48;62.22;100173.22;2084188;28;20002;-54
2022/04/16 01:33:03;;;;;;;;;;;;;;;18.48;62.32;100173.22;2079328;28;21073;-56
2022/04/16 01:34:03;;;;;;;;;;;;;;;18.47;62.34;100166.00;2083790;28;20546;-56
2022/04/16 01:35:05;;;;;;;;;;;;;;;18.47;62.28;100166.00;2084715;28;20147;-55
2022/04/16 01:36:05;;;;;;;;;;;;;;;18.46;62.29;100170.63;2080661;28;20217;-56
2022/04/16 01:37:06;;;;;;;;;;;;;;;18.47;62.30;100172.38;2084303;28;19904;-56
2022/04/16 01:38:07;;;;;;;;;;;;;;;18.46;62.27;100169.75;2080507;28;20022;-55
2022/04/16 01:39:08;;;;;;;;;;;;;;;18.46;62.39;100169.75;2083495;28;20487;-55
2022/04/16 01:40:09;;;;;;;;;;;;;;;18.45;62.37;100171.63;2085122;28;19916;-55
2022/04/16 01:41:10;;;;;;;;;;;;;;;18.46;62.44;100180.69;2081585;28;19916;-55
2022/04/16 01:42:10;;;;;;;;;;;;;;;18.45;62.45;100176.22;2085331;28;19923;-56
2022/04/16 01:43:10;;;;;;;;;;;;;;;18.45;62.58;100174.38;2080040;28;20278;-56
2022/04/16 01:44:11;;;;;;;;;;;;;;;18.44;62.47;100172.63;2084900;28;19916;-55
2022/04/16 01:45:15;;;;;;;;;;;;;;;18.45;62.51;100170.75;2084266;28;19923;-56
2022/04/16 01:46:15;;;;;;;;;;;;;;;18.44;62.61;100175.34;2077960;28;19946;-55
2022/04/16 01:47:16;;;;;;;;;;;;;;;18.44;62.50;100172.63;2083724;28;20676;-55
2022/04/16 01:48:16;;;;;;;;;;;;;;;18.43;62.66;100166.31;2081715;28;19917;-56
2022/04/16 01:49:20;;;;;;;;;;;;;;;18.43;62.58;100165.47;2079762;28;20885;-56
2022/04/16 01:50:22;;;;;;;;;;;;;;;18.43;62.51;100171.78;2080931;28;19967;-55
2022/04/16 01:51:22;;;;;;;;;;;;;;;18.42;62.43;100164.59;2083922;28;20445;-56
2022/04/16 01:52:23;;;;;;;;;;;;;;;18.42;62.53;100170.06;2080076;28;20144;-55
2022/04/16 01:53:23;;;;;;;;;;;;;;;18.42;62.52;100170.06;2081224;28;19973;-54
2022/04/16 01:54:24;;;;;;;;;;;;;;;18.41;62.63;100168.31;2079918;28;20223;-55
2022/04/16 01:55:24;;;;;;;;;;;;;;;18.41;62.53;100162.00;2084401;28;19924;-56
2022/04/16 01:56:25;;;;;;;;;;;;;;;18.42;62.59;100170.06;2084493;28;19920;-54
2022/04/16 01:57:25;;;;;;;;;;;;;;;18.42;62.52;100164.59;2079825;28;19920;-55
2022/04/16 01:58:25;;;;;;;;;;;;;;;18.42;62.52;100170.06;2084109;28;19920;-55
2022/04/16 01:59:27;;;;;;;;;;;;;;;18.42;62.50;100175.53;2079639;28;19925;-55
2022/04/16 02:00:27;;;;;;;;;;;;;;;18.42;62.59;100169.16;2086275;28;19920;-56
2022/04/16 02:01:28;;;;;;;;;;;;;;;18.42;62.44;100170.06;2084611;28;19924;-55
2022/04/16 02:02:28;;;;;;;;;;;;;;;18.42;62.47;100170.06;2081978;28;20311;-55
2022/04/16 02:03:29;;;;;;;;;;;;;;;18.42;62.51;100172.78;2084383;28;20034;-56
2022/04/16 02:04:31;;;;;;;;;;;;;;;18.41;62.44;100168.31;2089134;28;19912;-56
2022/04/16 02:05:32;;;;;;;;;;;;;;;18.42;62.45;100169.16;2087630;28;19931;-55
2022/04/16 02:06:32;;;;;;;;;;;;;;;18.42;62.58;100163.72;2098822;28;19927;-55
2022/04/16 02:07:32;;;;;;;;;;;;;;;18.42;62.51;100164.59;2095282;28;19920;-56
2022/04/16 02:08:33;;;;;;;;;;;;;;;18.41;62.55;100162.84;2072504;28;19921;-54
2022/04/16 02:09:33;;;;;;;;;;;;;;;18.41;62.53;100168.31;2081945;28;20369;-54
2022/04/16 02:10:35;;;;;;;;;;;;;;;18.42;62.43;100166.44;2081150;28;19927;-56
2022/04/16 02:11:35;;;;;;;;;;;;;;;18.41;62.54;100167.47;2080643;28;20478;-55
2022/04/16 02:12:37;;;;;;;;;;;;;;;18.40;62.52;100166.59;2081386;28;20344;-56
2022/04/16 02:13:38;;;;;;;;;;;;;;;18.40;62.52;100161.16;2081989;28;19916;-56
2022/04/16 02:14:39;;;;;;;;;;;;;;;18.41;62.51;100167.47;2081928;28;20423;-55
2022/04/16 02:15:39;;;;;;;;;;;;;;;18.40;62.53;100160.28;2080446;28;19948;-55
2022/04/16 02:16:40;;;;;;;;;;;;;;;18.41;62.61;100164.72;2083898;28;20382;-56
2022/04/16 02:17:40;;;;;;;;;;;;;;;18.39;62.64;100164.88;2084094;28;20139;-56
2022/04/16 02:18:41;;;;;;;;;;;;;;;18.39;62.70;100164.88;2084158;28;19921;-56
2022/04/16 02:19:42;;;;;;;;;;;;;;;18.39;62.72;100164.00;2082076;28;19920;-54
2022/04/16 02:20:44;;;;;;;;;;;;;;;18.40;62.62;100161.16;2089763;28;20368;-55
2022/04/16 02:21:45;;;;;;;;;;;;;;;18.39;62.74;100170.31;2083214;28;19997;-55
2022/04/16 02:22:46;;;;;;;;;;;;;;;18.39;62.66;100175.78;2083022;28;19917;-56
2022/04/16 02:23:46;;;;;;;;;;;;;;;18.39;62.58;100164.88;2082251;28;19923;-55
2022/04/16 02:24:47;;;;;;;;;;;;;;;18.39;62.49;100170.31;2082849;28;19991;-55
2022/04/16 02:25:47;;;;;;;;;;;;;;;18.39;62.62;100167.59;2089906;28;20115;-55
2022/04/16 02:26:47;;;;;;;;;;;;;;;18.39;62.61;100170.31;2077415;28;19920;-55
2022/04/16 02:27:47;;;;;;;;;;;;;;;18.39;62.66;100172.19;2080323;28;19927;-55
2022/04/16 02:28:48;;;;;;;;;;;;;;;18.40;62.72;100172.06;2084114;28;19927;-56
2022/04/16 02:29:48;;;;;;;;;;;;;;;18.40;62.69;100171.22;2079622;28;19921;-55
2022/04/16 02:30:49;;;;;;;;;;;;;;;18.40;62.63;100182.97;2094365;27;20193;-56
2022/04/16 02:31:49;;;;;;;;;;;;;;;18.41;62.52;100172.91;2100638;27;19927;-56
2022/04/16 02:32:53;;;;;;;;;;;;;;;18.40;62.46;100172.06;2080785;28;20016;-56
2022/04/16 02:33:57;;;;;;;;;;;;;;;18.41;62.56;100176.50;2083640;28;19980;-56
2022/04/16 02:34:57;;;;;;;;;;;;;;;18.40;62.52;100172.06;2083043;28;20402;-56
2022/04/16 02:35:58;;;;;;;;;;;;;;;18.40;62.33;100171.22;2080212;28;19920;-55
2022/04/16 02:36:59;;;;;;;;;;;;;;;18.40;62.54;100176.66;2081565;28;19916;-55
2022/04/16 02:37:59;;;;;;;;;;;;;;;18.40;62.36;100172.06;2082070;28;19924;-56
2022/04/16 02:38:59;;;;;;;;;;;;;;;18.41;62.22;100168.31;2082525;28;20382;-56
2022/04/16 02:40:00;;;;;;;;;;;;;;;18.40;62.37;100176.66;2081086;28;19917;-56
2022/04/16 02:41:00;;;;;;;;;;;;;;;18.40;62.38;100177.53;2084690;28;19973;-56
2022/04/16 02:42:00;;;;;;;;;;;;;;;18.39;62.40;100173.06;2081032;28;19956;-55
2022/04/16 02:43:01;;;;;;;;;;;;;;;18.39;62.42;100170.31;2083448;28;19958;-56
2022/04/16 02:44:01;;;;;;;;;;;;;;;18.39;62.50;100166.75;2081508;28;20276;-56
2022/04/16 02:47:40;;;;;;;;;;;;;;;18.38;62.73;100163.16;2078949;28;20023;-56
2022/04/16 02:48:41;;;;;;;;;;;;;;;18.37;62.56;100156.00;2094736;28;19912;-55
2022/04/16 02:49:43;;;;;;;;;;;;;;;18.38;62.75;100165.88;2091784;28;20038;-55
2022/04/16 02:50:44;;;;;;;;;;;;;;;18.38;62.79;100163.16;2080883;28;19920;-56
2022/04/16 02:51:44;;;;;;;;;;;;;;;18.37;62.76;100164.16;2082068;28;20013;-56
2022/04/16 02:52:46;;;;;;;;;;;;;;;18.37;62.76;100158.72;2081980;28;19980;-55
2022/04/16 02:53:46;;;;;;;;;;;;;;;18.38;62.62;100162.31;2080090;28;20001;-55
2022/04/16 02:54:47;;;;;;;;;;;;;;;18.38;62.74;100156.84;2077402;28;19928;-55
2022/04/16 02:55:48;;;;;;;;;;;;;;;18.38;62.84;100162.31;2081971;28;19916;-54
2022/04/16 02:56:48;;;;;;;;;;;;;;;18.38;62.63;100157.69;2081476;28;19926;-55
2022/04/16 02:57:52;;;;;;;;;;;;;;;18.38;62.64;100157.69;2079037;28;19981;-54
2022/04/16 02:58:52;;;;;;;;;;;;;;;18.39;62.52;100159.41;2078277;28;19982;-55
2022/04/16 02:59:53;;;;;;;;;;;;;;;18.39;62.56;100159.41;2084013;28;20324;-55
2022/04/16 03:00:54;;;;;;;;;;;;;;;18.38;62.54;100160.44;2081312;28;19920;-55
2022/04/16 03:01:55;;;;;;;;;;;;;;;18.38;62.51;100157.69;2080052;28;20318;-56
2022/04/16 03:02:55;;;;;;;;;;;;;;;18.38;62.52;100157.69;2079183;28;20197;-55
2022/04/16 03:03:55;;;;;;;;;;;;;;;18.39;62.56;100162.13;2079854;28;19917;-54
2022/04/16 03:04:56;;;;;;;;;;;;;;;18.39;62.64;100164.88;2080335;28;20267;-54
2022/04/16 03:05:56;;;;;;;;;;;;;;;18.40;62.49;100165.75;2085791;28;19928;-56
2022/04/16 03:06:57;;;;;;;;;;;;;;;18.38;62.67;100157.69;2079014;28;19920;-55
2022/04/16 03:07:57;;;;;;;;;;;;;;;18.39;62.54;100159.41;2080678;28;19921;-55
2022/04/16 03:08:57;;;;;;;;;;;;;;;18.38;62.50;100152.25;2080561;28;20747;-55
2022/04/16 03:09:57;;;;;;;;;;;;;;;18.38;62.62;100159.56;2079066;28;19951;-55
2022/04/16 03:10:58;;;;;;;;;;;;;;;18.37;62.59;100158.72;2083376;28;19927;-54
2022/04/16 03:11:58;;;;;;;;;;;;;;;18.36;62.73;100156.97;2080318;28;21892;-55
2022/04/16 03:12:59;;;;;;;;;;;;;;;18.37;62.68;100158.72;2080228;28;19926;-56
2022/04/16 03:17:31;;;;;;;;;;;;;;;18.37;62.74;100166.91;2092450;28;19943;-54
2022/04/16 03:17:59;;;;;;;;;;;;;;;18.36;63.08;100167.03;2080616;28;19916;-55
2022/04/16 03:18:59;;;;;;;;;;;;;;;18.34;63.02;100167.16;2083174;28;19912;-55
2022/04/16 03:20:04;;;;;;;;;;;;;;;18.35;63.03;100160.72;2080604;28;20231;-54
2022/04/16 03:21:05;;;;;;;;;;;;;;;18.34;63.06;100161.72;2082191;28;20661;-56
2022/04/16 03:22:05;;;;;;;;;;;;;;;18.34;63.01;100158.97;2079593;28;19931;-54
2022/04/16 03:23:05;;;;;;;;;;;;;;;18.34;63.00;100155.41;2079404;28;20152;-55
2022/04/16 03:24:05;;;;;;;;;;;;;;;18.34;63.04;100156.25;2081087;28;19920;-54
2022/04/16 03:25:09;;;;;;;;;;;;;;;18.34;62.92;100156.25;2078386;28;20355;-55
2022/04/16 03:26:09;;;;;;;;;;;;;;;18.33;62.99;100154.53;2080834;28;21001;-55
2022/04/16 03:27:09;;;;;;;;;;;;;;;18.34;62.99;100163.59;2079054;28;19913;-55
2022/04/16 03:28:10;;;;;;;;;;;;;;;18.33;62.86;100154.53;2086203;28;20361;-56
2022/04/16 03:29:10;;;;;;;;;;;;;;;18.34;62.86;100155.41;2079871;28;19975;-55
2022/04/16 03:30:11;;;;;;;;;;;;;;;18.34;62.88;100160.84;2082801;28;19921;-55
2022/04/16 03:31:11;;;;;;;;;;;;;;;18.34;62.76;100158.13;2081031;28;19917;-55
2022/04/16 03:32:11;;;;;;;;;;;;;;;18.35;62.85;100151.69;2091792;28;19912;-55
2022/04/16 03:33:12;;;;;;;;;;;;;;;18.35;62.78;100157.13;2093560;28;19978;-55
2022/04/16 03:34:13;;;;;;;;;;;;;;;18.34;62.64;100161.72;2079035;28;19917;-54
2022/04/16 03:35:13;;;;;;;;;;;;;;;18.34;62.61;100161.72;2096579;28;19916;-54
2022/04/16 03:36:14;;;;;;;;;;;;;;;18.35;62.70;100155.25;2087581;28;20234;-55
2022/04/16 03:37:14;;;;;;;;;;;;;;;18.35;62.55;100160.72;2082566;28;19960;-55
2022/04/16 03:38:16;;;;;;;;;;;;;;;18.35;62.52;100158.00;2080808;28;21465;-55
2022/04/16 03:39:16;;;;;;;;;;;;;;;18.34;62.41;100150.78;2083432;28;19924;-55
2022/04/16 03:40:16;;;;;;;;;;;;;;;18.35;62.43;100151.69;2081078;28;19962;-55
2022/04/16 03:41:17;;;;;;;;;;;;;;;18.34;62.44;100156.25;2082266;28;19920;-55
2022/04/16 03:42:20;;;;;;;;;;;;;;;18.34;62.55;100155.41;2084065;28;19917;-54
2022/04/16 03:43:21;;;;;;;;;;;;;;;18.34;62.45;100156.25;2083830;28;20164;-53
2022/04/16 03:44:22;;;;;;;;;;;;;;;18.35;62.43;100165.31;2081067;28;20136;-49
2022/04/16 03:45:23;;;;;;;;;;;;;;;18.34;62.50;100160.84;2080398;28;19928;-49
2022/04/16 03:46:24;;;;;;;;;;;;;;;18.34;62.62;100164.44;2082419;28;20255;-51
2022/04/16 03:47:24;;;;;;;;;;;;;;;18.33;62.72;100160.00;2083807;28;19932;-49
2022/04/16 03:48:24;;;;;;;;;;;;;;;18.32;62.79;100163.72;2083346;28;20246;-48
2022/04/16 03:49:25;;;;;;;;;;;;;;;18.32;62.66;100155.53;2083943;28;19925;-50
2022/04/16 03:50:26;;;;;;;;;;;;;;;18.33;62.86;100170.91;2084877;28;20031;-50
2022/04/16 03:51:26;;;;;;;;;;;;;;;18.32;62.97;100163.72;2095974;28;19931;-51
2022/04/16 03:52:26;;;;;;;;;;;;;;;18.32;62.83;100155.53;2095600;28;20212;-48
2022/04/16 03:53:27;;;;;;;;;;;;;;;18.31;63.05;100153.81;2084895;28;19960;-48
2022/04/16 04:00:03;;;;;;;;;;;;;;;18.31;62.96;100156.53;2080857;28;19920;-51
2022/04/16 04:01:04;;;;;;;;;;;;;;;18.31;62.85;100164.72;2082082;28;19927;-48
2022/04/16 04:02:04;;;;;;;;;;;;;;;18.31;62.77;100162.00;2080979;28;19904;-50
2022/04/16 04:03:04;;;;;;;;;;;;;;;18.32;62.89;100169.16;2084126;28;19942;-50
2022/04/16 04:04:05;;;;;;;;;;;;;;;18.32;62.79;100162.84;2086462;28;20780;-52
2022/04/16 04:05:06;;;;;;;;;;;;;;;18.32;62.88;100169.16;2081519;28;20208;-50
2022/04/16 04:06:07;;;;;;;;;;;;;;;18.32;62.69;100163.72;2086702;28;20477;-49
2022/04/16 04:07:08;;;;;;;;;;;;;;;18.32;62.67;100160.13;2083818;28;20331;-49
2022/04/16 04:08:08;;;;;;;;;;;;;;;18.32;62.78;100162.84;2081709;28;19921;-48
2022/04/16 04:09:09;;;;;;;;;;;;;;;18.32;62.63;100158.25;2079972;28;19920;-49
2022/04/16 04:10:10;;;;;;;;;;;;;;;18.32;62.56;100152.78;2082119;28;19921;-49
2022/04/16 04:11:11;;;;;;;;;;;;;;;18.31;62.56;100151.09;2086597;28;19928;-48
2022/04/16 04:12:12;;;;;;;;;;;;;;;18.30;62.63;100154.84;2082645;28;19916;-50
2022/04/16 04:13:13;;;;;;;;;;;;;;;18.31;62.68;100151.09;2083993;28;19998;-47
2022/04/16 04:14:13;;;;;;;;;;;;;;;18.30;62.59;100152.09;2078631;28;20007;-49
2022/04/16 04:15:14;;;;;;;;;;;;;;;18.30;62.61;100152.09;2084323;28;19920;-49
2022/04/16 04:16:14;;;;;;;;;;;;;;;18.29;62.81;100153.09;2085767;28;19934;-48
2022/04/16 04:17:15;;;;;;;;;;;;;;;18.29;62.77;100150.38;2083732;28;20014;-47
2022/04/16 04:18:15;;;;;;;;;;;;;;;18.29;62.82;100153.09;2084178;28;19921;-51
2022/04/16 04:19:16;;;;;;;;;;;;;;;18.29;62.89;100158.53;2086309;28;19923;-48
2022/04/16 04:20:16;;;;;;;;;;;;;;;18.29;62.94;100164.00;2084363;28;19920;-51
2022/04/16 04:21:17;;;;;;;;;;;;;;;18.30;63.10;100165.75;2082064;28;19947;-48
2022/04/16 04:22:17;;;;;;;;;;;;;;;18.29;62.97;100160.41;2085353;28;19920;-49
2022/04/16 04:23:19;;;;;;;;;;;;;;;18.28;63.00;100162.28;2086107;28;19920;-49
2022/04/16 04:24:19;;;;;;;;;;;;;;;18.28;62.97;100156.84;2080588;28;19921;-51
2022/04/16 04:25:20;;;;;;;;;;;;;;;18.28;63.11;100162.28;2082152;28;20140;-48
2022/04/16 04:26:20;;;;;;;;;;;;;;;18.28;63.07;100167.75;2079901;28;19920;-48
2022/04/16 04:27:20;;;;;;;;;;;;;;;18.28;62.97;100161.44;2100922;28;19919;-48
2022/04/16 04:28:21;;;;;;;;;;;;;;;18.28;62.97;100162.28;2099445;28;19976;-51
2022/04/16 04:29:21;;;;;;;;;;;;;;;18.28;63.00;100166.91;2081674;28;20136;-49
2022/04/16 04:30:21;;;;;;;;;;;;;;;18.28;62.96;100162.28;2085500;28;20002;-48
2022/04/16 04:31:21;;;;;;;;;;;;;;;18.29;62.94;100164.00;2094216;28;19923;-47
2022/04/16 04:32:22;;;;;;;;;;;;;;;18.28;62.94;100162.28;2098657;28;19953;-48
2022/04/16 04:33:22;;;;;;;;;;;;;;;18.28;62.85;100156.84;2084168;28;19920;-50
2022/04/16 04:34:23;;;;;;;;;;;;;;;18.28;62.86;100154.09;2081433;28;19924;-48
2022/04/16 04:35:23;;;;;;;;;;;;;;;18.29;62.86;100154.97;2085423;28;20065;-49
2022/04/16 04:36:24;;;;;;;;;;;;;;;18.28;62.85;100162.28;2084028;28;19948;-48
2022/04/16 04:37:25;;;;;;;;;;;;;;;18.28;62.86;100151.38;2083360;28;19920;-51
2022/04/16 04:38:25;;;;;;;;;;;;;;;18.29;62.82;100153.09;2083562;28;19980;-48
2022/04/16 04:39:25;;;;;;;;;;;;;;;18.28;62.63;100156.84;2082604;28;19921;-49
2022/04/16 04:40:26;;;;;;;;;;;;;;;18.29;62.67;100158.53;2085300;28;19917;-49
2022/04/16 04:41:26;;;;;;;;;;;;;;;18.28;62.53;100159.56;2084280;28;19920;-49
2022/04/16 04:42:30;;;;;;;;;;;;;;;18.29;62.53;100158.53;2081406;28;20011;-49
2022/04/16 04:43:30;;;;;;;;;;;;;;;18.29;62.75;100166.75;2085162;28;19921;-47
2022/04/16 04:44:31;;;;;;;;;;;;;;;18.28;62.51;100162.28;2082893;28;20466;-47
2022/04/16 04:45:31;;;;;;;;;;;;;;;18.29;62.49;100161.28;2085747;28;19964;-49
2022/04/16 04:46:31;;;;;;;;;;;;;;;18.30;62.42;100160.28;2083775;28;19920;-50
2022/04/16 04:47:32;;;;;;;;;;;;;;;18.29;62.46;100164.00;2082050;28;20188;-49
2022/04/16 04:48:32;;;;;;;;;;;;;;;18.28;62.51;100165.03;2085699;28;19917;-50
2022/04/16 04:49:32;;;;;;;;;;;;;;;18.29;62.58;100163.16;2080502;28;20017;-49
2022/04/16 04:50:33;;;;;;;;;;;;;;;18.28;62.71;100165.03;2084237;28;19999;-47
2022/04/16 04:51:36;;;;;;;;;;;;;;;18.28;62.73;100167.75;2081674;28;20480;-51
2022/04/16 04:52:38;;;;;;;;;;;;;;;18.28;62.77;100167.75;2083657;28;19943;-48
2022/04/16 04:53:38;;;;;;;;;;;;;;;18.28;62.78;100167.75;2083522;28;19913;-49
2022/04/16 04:54:38;;;;;;;;;;;;;;;18.27;62.83;100176.94;2083727;28;19930;-47
2022/04/16 04:55:39;;;;;;;;;;;;;;;18.27;62.78;100174.19;2079147;28;20259;-49
2022/04/16 04:56:39;;;;;;;;;;;;;;;18.27;62.94;100176.94;2084374;28;19963;-50
2022/04/16 04:57:40;;;;;;;;;;;;;;;18.26;63.03;100180.66;2078267;28;19913;-48
2022/04/16 04:58:40;;;;;;;;;;;;;;;18.26;63.11;100169.75;2081204;28;19921;-49
2022/04/16 04:59:40;;;;;;;;;;;;;;;18.26;63.20;100175.22;2083754;28;19920;-47
2022/04/16 05:00:41;;;;;;;;;;;;;;;18.25;63.19;100178.97;2080352;28;19927;-48
2022/04/16 05:01:41;;;;;;;;;;;;;;;18.25;63.24;100176.22;2083986;28;19913;-49
2022/04/16 05:02:42;;;;;;;;;;;;;;;18.25;63.31;100181.69;2079941;28;19927;-49
2022/04/16 05:03:43;;;;;;;;;;;;;;;18.25;63.25;100184.41;2083158;28;20011;-46
2022/04/16 05:04:43;;;;;;;;;;;;;;;18.25;63.10;100184.41;2081554;28;19963;-52
2022/04/16 05:05:44;;;;;;;;;;;;;;;18.25;63.13;100178.97;2079163;28;20470;-51
2022/04/16 05:06:44;;;;;;;;;;;;;;;18.25;63.11;100184.41;2085849;28;19978;-47
2022/04/16 05:07:44;;;;;;;;;;;;;;;18.26;63.14;100191.59;2080425;28;19963;-48
2022/04/16 05:08:44;;;;;;;;;;;;;;;18.26;63.02;100185.28;2083205;28;20274;-48
2022/04/16 05:09:45;;;;;;;;;;;;;;;18.26;63.13;100197.03;2082911;28;19930;-49
2022/04/16 05:10:45;;;;;;;;;;;;;;;18.25;62.98;100195.34;2081338;28;19924;-51
2022/04/16 05:11:46;;;;;;;;;;;;;;;18.26;62.97;100196.19;2085424;28;19920;-51
2022/04/16 05:12:46;;;;;;;;;;;;;;;18.26;62.97;100197.03;2087360;28;20243;-48
2022/04/16 05:13:47;;;;;;;;;;;;;;;18.25;62.80;100195.34;2085402;28;19920;-49
2022/04/16 05:14:47;;;;;;;;;;;;;;;18.26;62.87;100202.50;2079264;28;20863;-51
2022/04/16 05:15:47;;;;;;;;;;;;;;;18.26;62.80;100199.78;2082798;28;20220;-51
2022/04/16 05:16:48;;;;;;;;;;;;;;;18.26;62.69;100202.50;2084152;28;19962;-47
2022/04/16 05:17:48;;;;;;;;;;;;;;;18.26;62.77;100191.59;2083091;28;19973;-48
2022/04/16 05:18:48;;;;;;;;;;;;;;;18.26;62.46;100197.03;2082177;28;19913;-49
2022/04/16 05:19:49;;;;;;;;;;;;;;;18.26;62.78;100196.19;2084233;28;20310;-48
2022/04/16 05:20:49;;;;;;;;;;;;;;;18.26;62.72;100199.78;2079358;28;19912;-51
2022/04/16 05:21:50;;;;;;;;;;;;;;;18.26;62.66;100202.50;2080705;28;19913;-48
2022/04/16 05:22:50;;;;;;;;;;;;;;;18.26;62.75;100199.78;2080579;28;20660;-50
2022/04/16 05:23:51;;;;;;;;;;;;;;;18.26;62.76;100205.22;2081249;28;19921;-51